sensor_id;sensor_type;location;lat;lon;timestamp;P1;durP1;ratioP1;P2;durP2;ratioP2
70320;SDS011;61127;55.826;37.046;2023-01-23T00:01:49;14.38;;;6.30;;
70320;SDS011;61127;55.826;37.046;2023-01-23T00:04:16;15.02;;;6.60;;
70320;SDS011;61127;55.826;37.046;2023-01-23T00:06:42;13.40;;;6.25;;
70320;SDS011;61127;55.826;37.046;2023-01-23T00:09:07;15.10;;;6.43;;
70320;SDS011;61127;55.826;37.046;2023-01-23T00:11:33;16.38;;;6.55;;
70320;SDS011;61127;55.826;37.046;2023-01-23T00:14:00;12.90;;;6.33;;
70320;SDS011;61127;55.826;37.046;2023-01-23T00:16:28;15.68;;;6.50;;
70320;SDS011;61127;55.826;37.046;2023-01-23T00:18:53;15.23;;;6.13;;
70320;SDS011;61127;55.826;37.046;2023-01-23T00:21:20;13.87;;;6.73;;
70320;SDS011;61127;55.826;37.046;2023-01-23T00:23:47;15.07;;;6.68;;
70320;SDS011;61127;55.826;37.046;2023-01-23T00:26:16;15.05;;;6.18;;
70320;SDS011;61127;55.826;37.046;2023-01-23T00:28:44;14.37;;;6.37;;
70320;SDS011;61127;55.826;37.046;2023-01-23T00:31:14;14.00;;;6.05;;
70320;SDS011;61127;55.826;37.046;2023-01-23T00:33:40;14.85;;;6.28;;
70320;SDS011;61127;55.826;37.046;2023-01-23T00:36:07;14.05;;;6.22;;
70320;SDS011;61127;55.826;37.046;2023-01-23T00:38:33;13.52;;;6.13;;
70320;SDS011;61127;55.826;37.046;2023-01-23T00:40:58;14.10;;;5.60;;
70320;SDS011;61127;55.826;37.046;2023-01-23T00:43:24;13.07;;;5.70;;
70320;SDS011;61127;55.826;37.046;2023-01-23T00:45:50;12.05;;;5.00;;
70320;SDS011;61127;55.826;37.046;2023-01-23T00:48:17;13.73;;;5.30;;
70320;SDS011;61127;55.826;37.046;2023-01-23T00:50:43;15.48;;;6.60;;
70320;SDS011;61127;55.826;37.046;2023-01-23T00:53:08;13.57;;;5.50;;
70320;SDS011;61127;55.826;37.046;2023-01-23T00:55:35;15.27;;;6.43;;
70320;SDS011;61127;55.826;37.046;2023-01-23T00:58:01;11.15;;;4.90;;
70320;SDS011;61127;55.826;37.046;2023-01-23T01:00:26;14.53;;;5.77;;
70320;SDS011;61127;55.826;37.046;2023-01-23T01:02:52;12.15;;;5.85;;
70320;SDS011;61127;55.826;37.046;2023-01-23T01:05:18;12.70;;;5.80;;
70320;SDS011;61127;55.826;37.046;2023-01-23T01:07:46;13.77;;;5.80;;
70320;SDS011;61127;55.826;37.046;2023-01-23T01:10:13;13.83;;;6.23;;
70320;SDS011;61127;55.826;37.046;2023-01-23T01:12:38;13.38;;;5.85;;
70320;SDS011;61127;55.826;37.046;2023-01-23T01:15:06;15.80;;;6.03;;
70320;SDS011;61127;55.826;37.046;2023-01-23T01:17:31;14.05;;;6.57;;
70320;SDS011;61127;55.826;37.046;2023-01-23T01:19:58;16.98;;;6.38;;
70320;SDS011;61127;55.826;37.046;2023-01-23T01:22:23;19.50;;;7.27;;
70320;SDS011;61127;55.826;37.046;2023-01-23T01:24:50;15.40;;;6.15;;
70320;SDS011;61127;55.826;37.046;2023-01-23T01:27:15;17.17;;;6.90;;
70320;SDS011;61127;55.826;37.046;2023-01-23T01:29:41;14.40;;;6.83;;
70320;SDS011;61127;55.826;37.046;2023-01-23T01:32:07;14.33;;;6.67;;
70320;SDS011;61127;55.826;37.046;2023-01-23T01:34:33;15.65;;;6.68;;
70320;SDS011;61127;55.826;37.046;2023-01-23T01:36:59;16.83;;;7.20;;
70320;SDS011;61127;55.826;37.046;2023-01-23T01:39:24;16.00;;;7.47;;
70320;SDS011;61127;55.826;37.046;2023-01-23T01:41:50;19.60;;;7.70;;
70320;SDS011;61127;55.826;37.046;2023-01-23T01:44:18;17.27;;;7.28;;
70320;SDS011;61127;55.826;37.046;2023-01-23T01:46:44;17.43;;;7.07;;
70320;SDS011;61127;55.826;37.046;2023-01-23T01:51:40;17.95;;;7.05;;
70320;SDS011;61127;55.826;37.046;2023-01-23T01:54:18;15.23;;;6.85;;
70320;SDS011;61127;55.826;37.046;2023-01-23T01:56:50;15.52;;;6.72;;
70320;SDS011;61127;55.826;37.046;2023-01-23T01:59:17;14.97;;;6.40;;
70320;SDS011;61127;55.826;37.046;2023-01-23T02:01:43;18.75;;;7.97;;
70320;SDS011;61127;55.826;37.046;2023-01-23T02:04:11;15.48;;;7.55;;
70320;SDS011;61127;55.826;37.046;2023-01-23T02:06:37;14.80;;;7.00;;
70320;SDS011;61127;55.826;37.046;2023-01-23T02:09:04;15.25;;;6.38;;
70320;SDS011;61127;55.826;37.046;2023-01-23T02:11:32;18.17;;;7.33;;
70320;SDS011;61127;55.826;37.046;2023-01-23T02:13:57;19.50;;;7.38;;
70320;SDS011;61127;55.826;37.046;2023-01-23T02:16:27;17.70;;;7.83;;
70320;SDS011;61127;55.826;37.046;2023-01-23T02:19:03;18.13;;;7.68;;
70320;SDS011;61127;55.826;37.046;2023-01-23T02:21:33;15.15;;;6.13;;
70320;SDS011;61127;55.826;37.046;2023-01-23T02:26:34;19.17;;;8.23;;
70320;SDS011;61127;55.826;37.046;2023-01-23T02:29:02;20.27;;;8.30;;
70320;SDS011;61127;55.826;37.046;2023-01-23T02:31:32;19.48;;;7.75;;
70320;SDS011;61127;55.826;37.046;2023-01-23T02:33:58;18.85;;;7.55;;
70320;SDS011;61127;55.826;37.046;2023-01-23T02:36:26;19.50;;;7.40;;
70320;SDS011;61127;55.826;37.046;2023-01-23T02:41:28;16.88;;;7.38;;
70320;SDS011;61127;55.826;37.046;2023-01-23T02:43:55;18.00;;;7.55;;
70320;SDS011;61127;55.826;37.046;2023-01-23T02:46:23;16.90;;;7.75;;
70320;SDS011;61127;55.826;37.046;2023-01-23T02:48:48;19.43;;;7.27;;
70320;SDS011;61127;55.826;37.046;2023-01-23T02:51:14;18.42;;;8.18;;
70320;SDS011;61127;55.826;37.046;2023-01-23T02:53:41;19.15;;;8.60;;
70320;SDS011;61127;55.826;37.046;2023-01-23T02:56:07;18.38;;;8.00;;
70320;SDS011;61127;55.826;37.046;2023-01-23T02:58:33;19.50;;;8.97;;
70320;SDS011;61127;55.826;37.046;2023-01-23T03:01:17;16.73;;;7.53;;
70320;SDS011;61127;55.826;37.046;2023-01-23T03:03:43;16.95;;;7.55;;
70320;SDS011;61127;55.826;37.046;2023-01-23T03:06:10;17.23;;;7.63;;
70320;SDS011;61127;55.826;37.046;2023-01-23T03:08:35;17.60;;;7.53;;
70320;SDS011;61127;55.826;37.046;2023-01-23T03:11:13;16.60;;;6.90;;
70320;SDS011;61127;55.826;37.046;2023-01-23T03:13:39;18.15;;;7.78;;
70320;SDS011;61127;55.826;37.046;2023-01-23T03:16:06;20.00;;;7.88;;
70320;SDS011;61127;55.826;37.046;2023-01-23T03:18:32;21.47;;;8.07;;
70320;SDS011;61127;55.826;37.046;2023-01-23T03:21:02;18.75;;;8.23;;
70320;SDS011;61127;55.826;37.046;2023-01-23T03:23:28;17.88;;;8.00;;
70320;SDS011;61127;55.826;37.046;2023-01-23T03:25:53;21.60;;;9.37;;
70320;SDS011;61127;55.826;37.046;2023-01-23T03:28:26;20.88;;;8.77;;
70320;SDS011;61127;55.826;37.046;2023-01-23T03:31:11;21.55;;;8.00;;
70320;SDS011;61127;55.826;37.046;2023-01-23T03:33:37;16.65;;;7.90;;
70320;SDS011;61127;55.826;37.046;2023-01-23T03:36:05;23.67;;;8.93;;
70320;SDS011;61127;55.826;37.046;2023-01-23T03:38:31;18.02;;;8.02;;
70320;SDS011;61127;55.826;37.046;2023-01-23T03:40:56;27.27;;;9.80;;
70320;SDS011;61127;55.826;37.046;2023-01-23T03:43:41;22.97;;;8.60;;
70320;SDS011;61127;55.826;37.046;2023-01-23T03:46:07;20.83;;;8.65;;
70320;SDS011;61127;55.826;37.046;2023-01-23T03:48:36;23.40;;;8.27;;
70320;SDS011;61127;55.826;37.046;2023-01-23T03:51:02;20.93;;;7.87;;
70320;SDS011;61127;55.826;37.046;2023-01-23T03:53:30;23.95;;;9.98;;
70320;SDS011;61127;55.826;37.046;2023-01-23T03:55:59;21.80;;;8.50;;
70320;SDS011;61127;55.826;37.046;2023-01-23T03:58:25;25.40;;;9.07;;
70320;SDS011;61127;55.826;37.046;2023-01-23T04:00:51;26.50;;;9.05;;
70320;SDS011;61127;55.826;37.046;2023-01-23T04:03:17;21.38;;;8.50;;
70320;SDS011;61127;55.826;37.046;2023-01-23T04:05:43;22.93;;;7.33;;
70320;SDS011;61127;55.826;37.046;2023-01-23T04:08:09;22.15;;;8.35;;
70320;SDS011;61127;55.826;37.046;2023-01-23T04:10:35;25.10;;;9.27;;
70320;SDS011;61127;55.826;37.046;2023-01-23T04:13:05;21.70;;;9.15;;
70320;SDS011;61127;55.826;37.046;2023-01-23T04:15:31;20.65;;;8.00;;
70320;SDS011;61127;55.826;37.046;2023-01-23T04:17:59;25.97;;;9.27;;
70320;SDS011;61127;55.826;37.046;2023-01-23T04:20:26;20.45;;;8.02;;
70320;SDS011;61127;55.826;37.046;2023-01-23T04:22:53;22.15;;;7.97;;
70320;SDS011;61127;55.826;37.046;2023-01-23T04:25:21;18.55;;;7.60;;
70320;SDS011;61127;55.826;37.046;2023-01-23T04:27:48;16.30;;;6.57;;
70320;SDS011;61127;55.826;37.046;2023-01-23T04:30:13;17.57;;;6.83;;
70320;SDS011;61127;55.826;37.046;2023-01-23T04:32:39;17.33;;;6.93;;
70320;SDS011;61127;55.826;37.046;2023-01-23T04:37:51;15.02;;;5.55;;
70320;SDS011;61127;55.826;37.046;2023-01-23T04:40:17;14.13;;;6.13;;
70320;SDS011;61127;55.826;37.046;2023-01-23T04:42:55;13.02;;;5.68;;
70320;SDS011;61127;55.826;37.046;2023-01-23T04:45:35;15.63;;;6.05;;
70320;SDS011;61127;55.826;37.046;2023-01-23T04:48:27;14.57;;;6.00;;
70320;SDS011;61127;55.826;37.046;2023-01-23T04:50:53;14.33;;;6.03;;
70320;SDS011;61127;55.826;37.046;2023-01-23T04:53:19;15.75;;;6.75;;
70320;SDS011;61127;55.826;37.046;2023-01-23T04:55:50;13.53;;;5.93;;
70320;SDS011;61127;55.826;37.046;2023-01-23T04:58:17;13.68;;;6.10;;
70320;SDS011;61127;55.826;37.046;2023-01-23T05:00:43;14.57;;;6.82;;
70320;SDS011;61127;55.826;37.046;2023-01-23T05:03:08;14.65;;;6.15;;
70320;SDS011;61127;55.826;37.046;2023-01-23T05:05:37;11.23;;;5.15;;
70320;SDS011;61127;55.826;37.046;2023-01-23T05:08:03;10.93;;;5.10;;
70320;SDS011;61127;55.826;37.046;2023-01-23T05:10:29;11.35;;;5.40;;
70320;SDS011;61127;55.826;37.046;2023-01-23T05:12:58;12.68;;;5.35;;
70320;SDS011;61127;55.826;37.046;2023-01-23T05:15:25;13.48;;;5.50;;
70320;SDS011;61127;55.826;37.046;2023-01-23T05:17:51;12.23;;;5.22;;
70320;SDS011;61127;55.826;37.046;2023-01-23T05:20:16;12.70;;;5.10;;
70320;SDS011;61127;55.826;37.046;2023-01-23T05:22:42;12.35;;;4.80;;
70320;SDS011;61127;55.826;37.046;2023-01-23T05:25:23;11.27;;;4.38;;
70320;SDS011;61127;55.826;37.046;2023-01-23T05:27:49;13.80;;;6.40;;
70320;SDS011;61127;55.826;37.046;2023-01-23T05:30:16;14.80;;;6.35;;
70320;SDS011;61127;55.826;37.046;2023-01-23T05:32:44;15.57;;;6.22;;
70320;SDS011;61127;55.826;37.046;2023-01-23T05:35:17;15.45;;;6.10;;
70320;SDS011;61127;55.826;37.046;2023-01-23T05:37:42;12.82;;;5.60;;
70320;SDS011;61127;55.826;37.046;2023-01-23T05:40:13;15.97;;;5.37;;
70320;SDS011;61127;55.826;37.046;2023-01-23T05:43:14;14.95;;;5.95;;
70320;SDS011;61127;55.826;37.046;2023-01-23T05:45:59;15.02;;;6.38;;
70320;SDS011;61127;55.826;37.046;2023-01-23T05:48:43;17.48;;;6.53;;
70320;SDS011;61127;55.826;37.046;2023-01-23T05:51:10;14.13;;;6.03;;
70320;SDS011;61127;55.826;37.046;2023-01-23T05:53:36;16.90;;;6.30;;
70320;SDS011;61127;55.826;37.046;2023-01-23T05:56:04;18.77;;;6.35;;
70320;SDS011;61127;55.826;37.046;2023-01-23T05:58:31;15.02;;;6.20;;
70320;SDS011;61127;55.826;37.046;2023-01-23T06:01:21;15.13;;;6.95;;
70320;SDS011;61127;55.826;37.046;2023-01-23T06:04:15;17.63;;;6.60;;
70320;SDS011;61127;55.826;37.046;2023-01-23T06:07:00;14.73;;;6.13;;
70320;SDS011;61127;55.826;37.046;2023-01-23T06:09:26;14.98;;;7.03;;
70320;SDS011;61127;55.826;37.046;2023-01-23T06:11:52;17.93;;;6.90;;
70320;SDS011;61127;55.826;37.046;2023-01-23T06:14:19;21.50;;;6.30;;
70320;SDS011;61127;55.826;37.046;2023-01-23T06:16:44;15.70;;;6.07;;
70320;SDS011;61127;55.826;37.046;2023-01-23T06:19:11;13.75;;;6.57;;
70320;SDS011;61127;55.826;37.046;2023-01-23T06:21:37;18.10;;;7.57;;
70320;SDS011;61127;55.826;37.046;2023-01-23T06:24:04;15.07;;;6.22;;
70320;SDS011;61127;55.826;37.046;2023-01-23T06:26:29;18.20;;;7.10;;
70320;SDS011;61127;55.826;37.046;2023-01-23T06:28:55;14.10;;;6.47;;
70320;SDS011;61127;55.826;37.046;2023-01-23T06:31:21;15.50;;;6.87;;
70320;SDS011;61127;55.826;37.046;2023-01-23T06:33:57;21.67;;;7.45;;
70320;SDS011;61127;55.826;37.046;2023-01-23T06:36:29;19.35;;;7.97;;
70320;SDS011;61127;55.826;37.046;2023-01-23T06:38:54;22.77;;;7.93;;
70320;SDS011;61127;55.826;37.046;2023-01-23T06:41:28;22.52;;;7.85;;
70320;SDS011;61127;55.826;37.046;2023-01-23T06:43:58;22.58;;;8.88;;
70320;SDS011;61127;55.826;37.046;2023-01-23T06:46:26;21.60;;;7.33;;
70320;SDS011;61127;55.826;37.046;2023-01-23T06:48:52;22.17;;;7.40;;
70320;SDS011;61127;55.826;37.046;2023-01-23T06:51:18;19.33;;;8.13;;
70320;SDS011;61127;55.826;37.046;2023-01-23T06:53:45;20.23;;;7.63;;
70320;SDS011;61127;55.826;37.046;2023-01-23T06:56:12;21.47;;;7.50;;
70320;SDS011;61127;55.826;37.046;2023-01-23T06:58:38;20.33;;;7.78;;
70320;SDS011;61127;55.826;37.046;2023-01-23T07:01:11;18.92;;;7.95;;
70320;SDS011;61127;55.826;37.046;2023-01-23T07:04:06;18.48;;;7.22;;
70320;SDS011;61127;55.826;37.046;2023-01-23T07:06:33;15.95;;;7.05;;
70320;SDS011;61127;55.826;37.046;2023-01-23T07:08:59;17.73;;;7.60;;
70320;SDS011;61127;55.826;37.046;2023-01-23T07:11:24;17.67;;;7.67;;
70320;SDS011;61127;55.826;37.046;2023-01-23T07:13:50;18.45;;;7.53;;
70320;SDS011;61127;55.826;37.046;2023-01-23T07:16:17;16.30;;;5.63;;
70320;SDS011;61127;55.826;37.046;2023-01-23T07:18:43;16.80;;;7.68;;
70320;SDS011;61127;55.826;37.046;2023-01-23T07:21:09;17.23;;;7.57;;
70320;SDS011;61127;55.826;37.046;2023-01-23T07:23:34;16.80;;;7.27;;
70320;SDS011;61127;55.826;37.046;2023-01-23T07:26:02;15.80;;;7.43;;
70320;SDS011;61127;55.826;37.046;2023-01-23T07:28:28;17.03;;;7.23;;
70320;SDS011;61127;55.826;37.046;2023-01-23T07:30:55;17.90;;;6.45;;
70320;SDS011;61127;55.826;37.046;2023-01-23T07:33:36;17.27;;;6.97;;
70320;SDS011;61127;55.826;37.046;2023-01-23T07:36:06;18.30;;;8.23;;
70320;SDS011;61127;55.826;37.046;2023-01-23T07:38:31;16.73;;;7.40;;
70320;SDS011;61127;55.826;37.046;2023-01-23T07:40:57;21.60;;;7.57;;
70320;SDS011;61127;55.826;37.046;2023-01-23T07:43:23;23.10;;;8.60;;
70320;SDS011;61127;55.826;37.046;2023-01-23T07:45:51;16.75;;;7.40;;
70320;SDS011;61127;55.826;37.046;2023-01-23T07:48:17;18.05;;;8.02;;
70320;SDS011;61127;55.826;37.046;2023-01-23T07:50:42;21.20;;;7.67;;
70320;SDS011;61127;55.826;37.046;2023-01-23T07:53:08;20.03;;;7.97;;
70320;SDS011;61127;55.826;37.046;2023-01-23T07:55:36;18.10;;;7.40;;
70320;SDS011;61127;55.826;37.046;2023-01-23T07:58:02;17.40;;;7.28;;
70320;SDS011;61127;55.826;37.046;2023-01-23T08:00:28;18.40;;;7.07;;
70320;SDS011;61127;55.826;37.046;2023-01-23T08:02:54;15.10;;;6.88;;
70320;SDS011;61127;55.826;37.046;2023-01-23T08:05:21;16.07;;;6.60;;
70320;SDS011;61127;55.826;37.046;2023-01-23T08:07:47;17.05;;;6.68;;
70320;SDS011;61127;55.826;37.046;2023-01-23T08:10:12;16.97;;;6.60;;
70320;SDS011;61127;55.826;37.046;2023-01-23T08:12:38;15.82;;;6.10;;
70320;SDS011;61127;55.826;37.046;2023-01-23T08:15:05;13.83;;;6.07;;
70320;SDS011;61127;55.826;37.046;2023-01-23T08:17:31;15.80;;;5.90;;
70320;SDS011;61127;55.826;37.046;2023-01-23T08:19:56;13.97;;;6.70;;
70320;SDS011;61127;55.826;37.046;2023-01-23T08:22:22;15.35;;;6.13;;
70320;SDS011;61127;55.826;37.046;2023-01-23T08:24:48;19.70;;;7.10;;
70320;SDS011;61127;55.826;37.046;2023-01-23T08:27:14;13.20;;;6.53;;
70320;SDS011;61127;55.826;37.046;2023-01-23T08:29:39;14.07;;;6.73;;
70320;SDS011;61127;55.826;37.046;2023-01-23T08:32:05;13.10;;;6.50;;
70320;SDS011;61127;55.826;37.046;2023-01-23T08:34:31;13.90;;;6.40;;
70320;SDS011;61127;55.826;37.046;2023-01-23T08:36:56;14.40;;;7.10;;
70320;SDS011;61127;55.826;37.046;2023-01-23T08:39:22;14.18;;;6.28;;
70320;SDS011;61127;55.826;37.046;2023-01-23T08:41:49;15.57;;;6.90;;
70320;SDS011;61127;55.826;37.046;2023-01-23T08:44:14;14.30;;;6.60;;
70320;SDS011;61127;55.826;37.046;2023-01-23T08:46:40;15.85;;;6.15;;
70320;SDS011;61127;55.826;37.046;2023-01-23T08:49:07;14.93;;;6.47;;
70320;SDS011;61127;55.826;37.046;2023-01-23T08:51:33;15.18;;;6.65;;
70320;SDS011;61127;55.826;37.046;2023-01-23T08:53:58;15.60;;;6.43;;
70320;SDS011;61127;55.826;37.046;2023-01-23T08:56:24;15.32;;;6.85;;
70320;SDS011;61127;55.826;37.046;2023-01-23T08:58:50;14.93;;;6.00;;
70320;SDS011;61127;55.826;37.046;2023-01-23T09:01:25;14.83;;;6.37;;
70320;SDS011;61127;55.826;37.046;2023-01-23T09:03:51;15.95;;;6.90;;
70320;SDS011;61127;55.826;37.046;2023-01-23T09:06:19;14.60;;;6.28;;
70320;SDS011;61127;55.826;37.046;2023-01-23T09:08:44;15.90;;;6.50;;
70320;SDS011;61127;55.826;37.046;2023-01-23T09:11:11;15.50;;;6.80;;
70320;SDS011;61127;55.826;37.046;2023-01-23T09:13:36;21.20;;;7.90;;
70320;SDS011;61127;55.826;37.046;2023-01-23T09:16:03;16.67;;;6.50;;
70320;SDS011;61127;55.826;37.046;2023-01-23T09:18:29;14.50;;;5.97;;
70320;SDS011;61127;55.826;37.046;2023-01-23T09:20:55;15.03;;;6.50;;
70320;SDS011;61127;55.826;37.046;2023-01-23T09:23:20;13.77;;;5.72;;
70320;SDS011;61127;55.826;37.046;2023-01-23T09:25:46;16.13;;;5.87;;
70320;SDS011;61127;55.826;37.046;2023-01-23T09:28:12;15.07;;;6.07;;
70320;SDS011;61127;55.826;37.046;2023-01-23T09:30:37;14.57;;;6.20;;
70320;SDS011;61127;55.826;37.046;2023-01-23T09:33:03;12.73;;;5.30;;
70320;SDS011;61127;55.826;37.046;2023-01-23T09:35:30;12.10;;;5.75;;
70320;SDS011;61127;55.826;37.046;2023-01-23T09:37:56;11.98;;;5.30;;
70320;SDS011;61127;55.826;37.046;2023-01-23T09:41:12;10.90;;;4.67;;
70320;SDS011;61127;55.826;37.046;2023-01-23T09:45:40;13.02;;;5.30;;
70320;SDS011;61127;55.826;37.046;2023-01-23T09:48:16;14.20;;;5.00;;
70320;SDS011;61127;55.826;37.046;2023-01-23T09:50:50;16.52;;;5.70;;
70320;SDS011;61127;55.826;37.046;2023-01-23T09:53:18;12.33;;;5.23;;
70320;SDS011;61127;55.826;37.046;2023-01-23T09:55:52;13.40;;;5.60;;
70320;SDS011;61127;55.826;37.046;2023-01-23T09:58:26;13.68;;;5.90;;
70320;SDS011;61127;55.826;37.046;2023-01-23T10:00:52;13.38;;;5.25;;
70320;SDS011;61127;55.826;37.046;2023-01-23T10:03:18;14.53;;;5.33;;
70320;SDS011;61127;55.826;37.046;2023-01-23T10:16:25;12.15;;;5.47;;
70320;SDS011;61127;55.826;37.046;2023-01-23T10:19:05;13.20;;;5.32;;
70320;SDS011;61127;55.826;37.046;2023-01-23T10:21:37;14.23;;;5.27;;
70320;SDS011;61127;55.826;37.046;2023-01-23T10:24:42;13.85;;;5.05;;
70320;SDS011;61127;55.826;37.046;2023-01-23T10:27:03;13.60;;;5.72;;
70320;SDS011;61127;55.826;37.046;2023-01-23T10:29:37;13.20;;;5.28;;
70320;SDS011;61127;55.826;37.046;2023-01-23T10:32:03;15.15;;;5.10;;
70320;SDS011;61127;55.826;37.046;2023-01-23T10:34:34;13.13;;;5.17;;
70320;SDS011;61127;55.826;37.046;2023-01-23T10:37:14;16.70;;;5.57;;
70320;SDS011;61127;55.826;37.046;2023-01-23T10:39:47;15.48;;;5.65;;
70320;SDS011;61127;55.826;37.046;2023-01-23T10:42:15;12.98;;;5.28;;
70320;SDS011;61127;55.826;37.046;2023-01-23T10:44:42;18.08;;;6.28;;
70320;SDS011;61127;55.826;37.046;2023-01-23T10:47:13;15.73;;;5.60;;
70320;SDS011;61127;55.826;37.046;2023-01-23T10:49:42;16.23;;;6.13;;
70320;SDS011;61127;55.826;37.046;2023-01-23T10:52:50;15.70;;;4.95;;
70320;SDS011;61127;55.826;37.046;2023-01-23T10:54:58;14.40;;;5.10;;
70320;SDS011;61127;55.826;37.046;2023-01-23T10:57:36;15.03;;;5.47;;
70320;SDS011;61127;55.826;37.046;2023-01-23T11:00:16;13.82;;;5.60;;
70320;SDS011;61127;55.826;37.046;2023-01-23T11:02:44;12.27;;;5.03;;
70320;SDS011;61127;55.826;37.046;2023-01-23T11:07:54;14.13;;;5.50;;
70320;SDS011;61127;55.826;37.046;2023-01-23T11:10:20;11.73;;;5.13;;
70320;SDS011;61127;55.826;37.046;2023-01-23T11:12:50;12.52;;;5.10;;
70320;SDS011;61127;55.826;37.046;2023-01-23T11:15:26;12.30;;;4.87;;
70320;SDS011;61127;55.826;37.046;2023-01-23T11:17:53;18.13;;;6.03;;
70320;SDS011;61127;55.826;37.046;2023-01-23T11:38:24;16.73;;;5.88;;
70320;SDS011;61127;55.826;37.046;2023-01-23T11:40:51;15.85;;;6.38;;
70320;SDS011;61127;55.826;37.046;2023-01-23T11:43:16;17.80;;;6.17;;
70320;SDS011;61127;55.826;37.046;2023-01-23T11:45:54;15.57;;;6.13;;
70320;SDS011;61127;55.826;37.046;2023-01-23T11:48:27;16.15;;;5.53;;
70320;SDS011;61127;55.826;37.046;2023-01-23T11:56:04;19.55;;;6.35;;
70320;SDS011;61127;55.826;37.046;2023-01-23T12:01:35;15.13;;;6.40;;
70320;SDS011;61127;55.826;37.046;2023-01-23T12:06:45;17.88;;;6.50;;
70320;SDS011;61127;55.826;37.046;2023-01-23T12:09:14;18.67;;;6.72;;
70320;SDS011;61127;55.826;37.046;2023-01-23T12:42:41;18.88;;;7.60;;
70320;SDS011;61127;55.826;37.046;2023-01-23T12:47:38;26.27;;;9.48;;
70320;SDS011;61127;55.826;37.046;2023-01-23T12:50:18;23.37;;;9.00;;
70320;SDS011;61127;55.826;37.046;2023-01-23T12:52:49;22.67;;;8.32;;
70320;SDS011;61127;55.826;37.046;2023-01-23T12:55:19;21.23;;;7.93;;
70320;SDS011;61127;55.826;37.046;2023-01-23T12:57:46;19.17;;;7.95;;
70320;SDS011;61127;55.826;37.046;2023-01-23T13:02:57;20.80;;;8.33;;
70320;SDS011;61127;55.826;37.046;2023-01-23T13:08:23;25.97;;;9.10;;
70320;SDS011;61127;55.826;37.046;2023-01-23T13:10:55;17.88;;;7.30;;
70320;SDS011;61127;55.826;37.046;2023-01-23T13:13:42;21.35;;;8.38;;
70320;SDS011;61127;55.826;37.046;2023-01-23T13:16:11;20.85;;;7.75;;
70320;SDS011;61127;55.826;37.046;2023-01-23T13:18:37;23.30;;;7.85;;
70320;SDS011;61127;55.826;37.046;2023-01-23T13:21:21;22.00;;;8.20;;
70320;SDS011;61127;55.826;37.046;2023-01-23T13:24:12;24.60;;;8.20;;
70320;SDS011;61127;55.826;37.046;2023-01-23T13:29:51;21.58;;;8.50;;
70320;SDS011;61127;55.826;37.046;2023-01-23T13:32:20;24.83;;;8.83;;
70320;SDS011;61127;55.826;37.046;2023-01-23T13:34:50;23.13;;;8.40;;
70320;SDS011;61127;55.826;37.046;2023-01-23T13:37:58;22.40;;;8.43;;
70320;SDS011;61127;55.826;37.046;2023-01-23T13:42:36;21.77;;;7.70;;
70320;SDS011;61127;55.826;37.046;2023-01-23T13:47:44;19.27;;;8.25;;
70320;SDS011;61127;55.826;37.046;2023-01-23T13:50:35;21.97;;;8.53;;
70320;SDS011;61127;55.826;37.046;2023-01-23T13:53:24;23.13;;;8.15;;
70320;SDS011;61127;55.826;37.046;2023-01-23T13:56:15;24.80;;;8.93;;
70320;SDS011;61127;55.826;37.046;2023-01-23T13:59:03;20.45;;;8.13;;
70320;SDS011;61127;55.826;37.046;2023-01-23T14:01:31;23.63;;;8.55;;
70320;SDS011;61127;55.826;37.046;2023-01-23T14:04:21;21.10;;;8.00;;
70320;SDS011;61127;55.826;37.046;2023-01-23T14:07:28;21.90;;;7.93;;
70320;SDS011;61127;55.826;37.046;2023-01-23T14:10:27;24.63;;;9.65;;
70320;SDS011;61127;55.826;37.046;2023-01-23T14:13:00;23.45;;;9.05;;
70320;SDS011;61127;55.826;37.046;2023-01-23T14:15:26;21.15;;;8.25;;
70320;SDS011;61127;55.826;37.046;2023-01-23T14:20:42;26.48;;;8.45;;
70320;SDS011;61127;55.826;37.046;2023-01-23T14:23:42;22.33;;;7.95;;
70320;SDS011;61127;55.826;37.046;2023-01-23T14:26:02;25.23;;;9.02;;
70320;SDS011;61127;55.826;37.046;2023-01-23T14:28:28;23.57;;;9.00;;
70320;SDS011;61127;55.826;37.046;2023-01-23T14:30:58;23.80;;;9.18;;
70320;SDS011;61127;55.826;37.046;2023-01-23T14:33:23;25.52;;;9.00;;
70320;SDS011;61127;55.826;37.046;2023-01-23T14:35:51;27.38;;;9.02;;
70320;SDS011;61127;55.826;37.046;2023-01-23T14:38:19;26.30;;;9.40;;
70320;SDS011;61127;55.826;37.046;2023-01-23T14:40:47;25.60;;;9.23;;
70320;SDS011;61127;55.826;37.046;2023-01-23T14:43:16;26.05;;;9.05;;
70320;SDS011;61127;55.826;37.046;2023-01-23T14:45:46;24.03;;;8.30;;
70320;SDS011;61127;55.826;37.046;2023-01-23T14:48:13;23.08;;;7.65;;
70320;SDS011;61127;55.826;37.046;2023-01-23T14:50:40;21.92;;;7.70;;
70320;SDS011;61127;55.826;37.046;2023-01-23T14:53:11;24.20;;;8.20;;
70320;SDS011;61127;55.826;37.046;2023-01-23T14:55:39;22.03;;;8.03;;
70320;SDS011;61127;55.826;37.046;2023-01-23T14:58:05;21.48;;;8.40;;
70320;SDS011;61127;55.826;37.046;2023-01-23T15:00:33;21.05;;;8.35;;
70320;SDS011;61127;55.826;37.046;2023-01-23T15:02:59;22.00;;;8.20;;
70320;SDS011;61127;55.826;37.046;2023-01-23T15:05:28;25.63;;;8.70;;
70320;SDS011;61127;55.826;37.046;2023-01-23T15:08:05;28.55;;;9.05;;
70320;SDS011;61127;55.826;37.046;2023-01-23T15:13:07;26.27;;;9.13;;
70320;SDS011;61127;55.826;37.046;2023-01-23T15:15:36;24.20;;;8.77;;
70320;SDS011;61127;55.826;37.046;2023-01-23T15:18:02;20.93;;;7.60;;
70320;SDS011;61127;55.826;37.046;2023-01-23T15:20:31;23.05;;;8.27;;
70320;SDS011;61127;55.826;37.046;2023-01-23T15:23:12;22.88;;;8.27;;
70320;SDS011;61127;55.826;37.046;2023-01-23T15:25:40;20.15;;;8.60;;
70320;SDS011;61127;55.826;37.046;2023-01-23T15:30:51;22.45;;;8.68;;
70320;SDS011;61127;55.826;37.046;2023-01-23T15:33:22;23.50;;;9.60;;
70320;SDS011;61127;55.826;37.046;2023-01-23T15:35:49;22.17;;;8.47;;
70320;SDS011;61127;55.826;37.046;2023-01-23T15:38:15;23.95;;;8.68;;
70320;SDS011;61127;55.826;37.046;2023-01-23T15:40:41;24.27;;;8.80;;
70320;SDS011;61127;55.826;37.046;2023-01-23T15:45:35;23.25;;;9.02;;
70320;SDS011;61127;55.826;37.046;2023-01-23T15:48:01;22.70;;;8.70;;
70320;SDS011;61127;55.826;37.046;2023-01-23T15:50:27;25.63;;;9.10;;
70320;SDS011;61127;55.826;37.046;2023-01-23T15:52:53;25.98;;;8.60;;
70320;SDS011;61127;55.826;37.046;2023-01-23T15:55:20;23.42;;;8.40;;
70320;SDS011;61127;55.826;37.046;2023-01-23T15:57:46;28.80;;;9.60;;
70320;SDS011;61127;55.826;37.046;2023-01-23T16:00:13;25.25;;;9.32;;
70320;SDS011;61127;55.826;37.046;2023-01-23T16:02:39;23.77;;;8.95;;
70320;SDS011;61127;55.826;37.046;2023-01-23T16:05:04;27.93;;;8.80;;
70320;SDS011;61127;55.826;37.046;2023-01-23T16:07:32;22.42;;;8.80;;
70320;SDS011;61127;55.826;37.046;2023-01-23T16:09:58;25.02;;;9.30;;
70320;SDS011;61127;55.826;37.046;2023-01-23T16:12:28;24.77;;;8.45;;
70320;SDS011;61127;55.826;37.046;2023-01-23T16:14:53;22.40;;;9.30;;
70320;SDS011;61127;55.826;37.046;2023-01-23T16:17:19;23.10;;;8.43;;
70320;SDS011;61127;55.826;37.046;2023-01-23T16:19:45;23.53;;;9.23;;
70320;SDS011;61127;55.826;37.046;2023-01-23T16:22:11;20.80;;;8.15;;
70320;SDS011;61127;55.826;37.046;2023-01-23T16:24:39;25.87;;;9.03;;
70320;SDS011;61127;55.826;37.046;2023-01-23T16:27:05;23.73;;;8.80;;